createdAt,value
2023-01-25T00:01:09.168Z,62.87
2023-01-25T00:03:37.053Z,61.78
2023-01-25T00:06:05.253Z,61.32
2023-01-25T00:08:33.118Z,61.16
2023-01-25T00:11:00.954Z,59.03
2023-01-25T00:13:28.784Z,56.66
2023-01-25T00:16:04.568Z,56.54
2023-01-25T00:18:32.583Z,60.22
2023-01-25T00:21:00.771Z,63.88
2023-01-25T00:23:28.617Z,67.80
2023-01-25T00:25:58.844Z,65.72
2023-01-25T00:28:27.024Z,62.73
2023-01-25T00:31:02.177Z,61.43
2023-01-25T00:34:02.176Z,60.89
2023-01-25T00:36:37.344Z,59.26
2023-01-25T00:39:13.563Z,57.09
2023-01-25T00:41:41.645Z,58.97
2023-01-25T00:44:10.080Z,60.99
2023-01-25T00:46:38.140Z,64.25
2023-01-25T00:49:07.161Z,66.75
2023-01-25T00:51:35.014Z,66.03
2023-01-25T00:54:02.975Z,65.39
2023-01-25T00:56:30.987Z,63.41
2023-01-25T00:58:58.873Z,62.21
2023-01-25T01:01:26.784Z,61.84
2023-01-25T01:03:54.706Z,61.56
2023-01-25T01:06:22.585Z,60.75
2023-01-25T01:08:50.467Z,60.47
2023-01-25T01:11:18.399Z,60.23
2023-01-25T01:13:46.291Z,59.95
2023-01-25T01:16:14.439Z,60.10
2023-01-25T01:18:45.520Z,60.12
2023-01-25T01:21:14.264Z,60.14
2023-01-25T01:23:43.124Z,60.23
2023-01-25T01:26:15.493Z,60.07
2023-01-25T01:28:43.544Z,60.37
2023-01-25T01:31:16.260Z,60.58
2023-01-25T01:33:44.540Z,60.42
2023-01-25T01:36:18.443Z,60.25
2023-01-25T01:38:46.920Z,60.27
2023-01-25T01:41:17.297Z,60.11
2023-01-25T01:43:45.720Z,59.97
2023-01-25T01:46:17.643Z,60.19
2023-01-25T01:48:56.235Z,60.06
2023-01-25T01:51:43.938Z,60.20
2023-01-25T01:54:22.085Z,59.91
2023-01-25T01:57:07.054Z,59.82
2023-01-25T01:59:44.587Z,59.60
2023-01-25T02:02:14.956Z,58.43
2023-01-25T02:04:48.821Z,60.38
2023-01-25T02:07:39.267Z,62.60
2023-01-25T02:10:13.256Z,67.03
2023-01-25T02:12:43.384Z,66.85
2023-01-25T02:15:11.950Z,65.54
2023-01-25T02:17:42.700Z,64.36
2023-01-25T02:20:35.559Z,63.01
2023-01-25T02:23:43.445Z,62.07
2023-01-25T02:26:11.544Z,61.58
2023-01-25T02:29:03.356Z,61.30
2023-01-25T02:31:31.863Z,61.23
2023-01-25T02:34:00.920Z,60.92
2023-01-25T02:36:33.418Z,60.80
2023-01-25T02:39:06.999Z,60.12
2023-01-25T02:41:46.818Z,58.42
2023-01-25T02:44:34.439Z,57.27
2023-01-25T02:47:02.388Z,59.77
2023-01-25T02:49:30.221Z,61.53
2023-01-25T02:51:58.170Z,65.64
2023-01-25T02:54:27.130Z,67.80
2023-01-25T02:56:55.850Z,66.53
2023-01-25T02:59:23.947Z,64.82
2023-01-25T03:01:51.827Z,63.61
2023-01-25T03:04:19.665Z,62.30
2023-01-25T03:06:47.561Z,61.92
2023-01-25T03:09:15.336Z,61.83
2023-01-25T03:11:43.361Z,61.59
2023-01-25T03:14:11.219Z,61.50
2023-01-25T03:16:39.232Z,61.47
2023-01-25T03:19:07.124Z,61.44
2023-01-25T03:21:34.967Z,61.28
2023-01-25T03:24:03.516Z,60.79
2023-01-25T03:26:31.406Z,60.49
2023-01-25T03:28:59.286Z,60.50
2023-01-25T03:31:27.265Z,60.68
2023-01-25T03:33:55.129Z,60.62
2023-01-25T03:36:22.981Z,60.85
2023-01-25T03:38:50.814Z,60.83
2023-01-25T03:41:18.632Z,60.98
2023-01-25T03:43:46.421Z,61.02
2023-01-25T03:46:14.244Z,61.00
2023-01-25T03:48:42.164Z,61.33
2023-01-25T03:51:10.050Z,61.36
2023-01-25T03:53:37.914Z,61.16
2023-01-25T03:56:10.535Z,61.00
2023-01-25T03:58:40.374Z,60.97
2023-01-25T04:01:09.285Z,60.75
2023-01-25T04:03:37.317Z,60.42
2023-01-25T04:06:06.714Z,60.32
2023-01-25T04:08:34.962Z,60.16
2023-01-25T04:11:07.761Z,59.74
2023-01-25T04:13:37.950Z,59.42
2023-01-25T04:16:09.312Z,57.50
2023-01-25T04:18:37.507Z,58.10
2023-01-25T04:21:05.680Z,60.75
2023-01-25T04:23:33.716Z,64.57
2023-01-25T04:26:09.536Z,67.43
2023-01-25T04:28:37.466Z,67.02
2023-01-25T04:31:06.374Z,65.56
2023-01-25T04:33:34.660Z,64.20
2023-01-25T04:36:03.171Z,63.71
2023-01-25T04:38:31.024Z,63.18
2023-01-25T04:40:59.023Z,62.65
2023-01-25T04:43:27.059Z,62.38
2023-01-25T04:45:54.887Z,61.99
2023-01-25T04:48:22.832Z,61.61
2023-01-25T04:50:50.671Z,61.40
2023-01-25T04:53:18.575Z,61.23
2023-01-25T04:55:47.978Z,60.89
2023-01-25T04:58:16.779Z,60.78
2023-01-25T05:00:44.693Z,60.59
2023-01-25T05:03:12.543Z,60.23
2023-01-25T05:05:48.449Z,60.05
2023-01-25T05:08:16.296Z,59.75
2023-01-25T05:10:45.347Z,58.91
2023-01-25T05:13:13.292Z,58.40
2023-01-25T05:15:41.210Z,60.45
2023-01-25T05:18:09.277Z,61.94
2023-01-25T05:20:37.147Z,66.08
2023-01-25T05:23:05.839Z,68.69
2023-01-25T05:25:52.079Z,66.93
2023-01-25T05:28:19.897Z,65.38
2023-01-25T05:30:47.918Z,64.59
2023-01-25T05:33:15.805Z,63.61
2023-01-25T05:35:46.246Z,62.77
2023-01-25T05:38:14.289Z,62.16
2023-01-25T05:40:42.149Z,62.06
2023-01-25T05:43:13.081Z,61.62
2023-01-25T05:45:41.265Z,61.36
2023-01-25T05:48:09.199Z,61.31
2023-01-25T05:50:39.935Z,61.05
2023-01-25T05:53:07.869Z,60.46
2023-01-25T05:55:37.079Z,60.32
2023-01-25T05:58:04.987Z,60.00
2023-01-25T06:00:33.042Z,59.73
2023-01-25T06:03:02.625Z,59.70
2023-01-25T06:05:30.676Z,59.99
2023-01-25T06:07:59.830Z,59.91
2023-01-25T06:10:27.736Z,59.98
2023-01-25T06:12:59.480Z,59.95
2023-01-25T06:15:27.578Z,59.86
2023-01-25T06:17:56.961Z,59.71
2023-01-25T06:20:24.848Z,59.61
2023-01-25T06:22:54.268Z,59.06
2023-01-25T06:25:22.409Z,58.60
2023-01-25T06:27:50.545Z,60.17
2023-01-25T06:30:18.737Z,64.36
2023-01-25T06:32:46.682Z,67.01
2023-01-25T06:35:14.718Z,66.01
2023-01-25T06:37:42.841Z,64.79
2023-01-25T06:40:11.630Z,64.16
2023-01-25T06:42:39.677Z,63.31
2023-01-25T06:45:09.020Z,62.45
2023-01-25T06:47:38.440Z,61.95
2023-01-25T06:50:07.693Z,61.40
2023-01-25T06:52:38.794Z,60.90
2023-01-25T06:55:10.465Z,60.78
2023-01-25T06:57:38.557Z,60.54
2023-01-25T07:00:07.304Z,60.26
2023-01-25T07:02:37.016Z,60.19
2023-01-25T07:05:09.065Z,60.34
2023-01-25T07:07:37.223Z,60.41
2023-01-25T07:10:05.574Z,60.02
2023-01-25T07:12:33.652Z,57.72
2023-01-25T07:15:01.675Z,56.04
2023-01-25T07:17:29.554Z,58.42
2023-01-25T07:19:57.718Z,60.71
2023-01-25T07:22:25.586Z,64.34
2023-01-25T07:24:54.110Z,66.93
2023-01-25T07:27:27.316Z,66.22
2023-01-25T07:29:55.598Z,65.40
2023-01-25T07:32:23.453Z,64.39
2023-01-25T07:34:52.120Z,63.38
2023-01-25T07:37:20.827Z,62.98
2023-01-25T07:39:50.945Z,62.34
2023-01-25T07:42:18.939Z,61.99
2023-01-25T07:44:46.915Z,61.36
2023-01-25T07:47:15.542Z,61.11
2023-01-25T07:49:43.433Z,60.60
2023-01-25T07:52:11.906Z,60.70
2023-01-25T07:54:39.805Z,60.82
2023-01-25T07:57:07.739Z,60.79
2023-01-25T07:59:35.658Z,60.77
2023-01-25T08:02:03.799Z,60.85
2023-01-25T08:04:31.837Z,59.29
2023-01-25T08:06:59.668Z,56.96
2023-01-25T08:09:28.412Z,58.14
2023-01-25T08:11:56.305Z,60.42
2023-01-25T08:14:26.114Z,63.97
2023-01-25T08:16:56.355Z,66.81
2023-01-25T08:19:28.357Z,65.59
2023-01-25T08:21:56.382Z,64.04
2023-01-25T08:24:25.521Z,62.24
2023-01-25T08:26:53.526Z,61.08
2023-01-25T08:29:24.958Z,60.71
2023-01-25T08:31:53.030Z,60.17
2023-01-25T08:34:21.142Z,59.49
2023-01-25T08:39:22.893Z,57.02
2023-01-25T08:41:50.873Z,59.86
2023-01-25T08:44:24.237Z,61.58
2023-01-25T08:46:52.286Z,65.67
2023-01-25T08:49:20.141Z,67.90
2023-01-25T08:51:51.080Z,66.56
2023-01-25T08:54:19.606Z,64.81
2023-01-25T08:56:47.818Z,63.20
2023-01-25T08:59:15.702Z,62.14
2023-01-25T09:01:46.146Z,61.19
2023-01-25T09:04:14.246Z,60.79
2023-01-25T09:06:42.356Z,59.89
2023-01-25T09:09:13.099Z,59.51
2023-01-25T09:11:40.960Z,57.75
2023-01-25T09:14:08.991Z,57.34
2023-01-25T09:16:36.985Z,59.41
2023-01-25T09:19:06.532Z,62.12
2023-01-25T09:21:34.987Z,66.15
2023-01-25T09:24:06.598Z,67.04
2023-01-25T09:26:39.332Z,65.11
2023-01-25T09:29:08.951Z,63.96
2023-01-25T09:31:45.540Z,62.50
2023-01-25T09:34:15.703Z,61.43
2023-01-25T09:36:44.272Z,60.80
2023-01-25T09:39:12.493Z,60.11
2023-01-25T09:41:40.507Z,57.99
2023-01-25T09:44:55.916Z,57.17
2023-01-25T09:47:57.658Z,59.51
2023-01-25T09:50:33.386Z,61.44
2023-01-25T09:53:21.784Z,65.41
2023-01-25T09:55:54.271Z,67.27
2023-01-25T09:58:30.869Z,65.40
2023-01-25T10:01:45.622Z,62.74
2023-01-25T10:04:21.297Z,61.25
2023-01-25T10:07:01.341Z,61.25
2023-01-25T10:09:45.288Z,60.49
2023-01-25T10:12:20.888Z,59.32
2023-01-25T10:14:50.856Z,56.93
2023-01-25T10:17:37.989Z,57.59
2023-01-25T10:20:35.327Z,60.46
2023-01-25T10:23:33.631Z,64.54
2023-01-25T10:26:08.190Z,65.90
2023-01-25T10:29:21.772Z,64.11
2023-01-25T10:31:57.257Z,62.35
2023-01-25T10:34:50.734Z,61.09
2023-01-25T10:37:34.236Z,59.39
2023-01-25T10:40:22.711Z,57.33
2023-01-25T10:42:59.393Z,59.14
2023-01-25T10:45:27.284Z,61.02
2023-01-25T10:48:08.419Z,64.75
2023-01-25T10:50:41.604Z,65.54
2023-01-25T10:53:24.158Z,63.49
2023-01-25T10:56:01.762Z,61.85
2023-01-25T10:58:35.751Z,60.41
2023-01-25T11:01:11.250Z,59.75
2023-01-25T11:03:44.897Z,57.51
2023-01-25T11:06:13.210Z,57.34
2023-01-25T11:08:43.318Z,59.12
2023-01-25T11:11:25.699Z,60.97
2023-01-25T11:13:55.524Z,62.13
2023-01-25T11:16:31.996Z,65.29
2023-01-25T11:19:03.040Z,65.93
2023-01-25T11:21:34.274Z,63.56
2023-01-25T11:24:18.220Z,60.71
2023-01-25T11:26:46.756Z,57.67
2023-01-25T11:29:16.239Z,56.98
2023-01-25T11:31:50.356Z,58.23
2023-01-25T11:34:27.319Z,60.26
2023-01-25T11:37:22.067Z,61.02
2023-01-25T11:40:10.120Z,62.07
2023-01-25T11:43:38.490Z,65.52
2023-01-25T11:46:34.009Z,64.89
2023-01-25T11:49:58.671Z,61.74
2023-01-25T11:53:14.068Z,61.14
2023-01-25T11:55:56.293Z,56.38
2023-01-25T11:58:39.311Z,54.08
2023-01-25T12:01:10.094Z,52.76
2023-01-25T12:04:06.632Z,52.98
2023-01-25T12:06:58.543Z,53.78
2023-01-25T12:09:44.798Z,55.00
2023-01-25T12:12:47.836Z,56.51
2023-01-25T12:15:50.555Z,58.52
2023-01-25T12:18:47.697Z,59.08
2023-01-25T12:21:50.424Z,60.60
2023-01-25T12:24:38.793Z,61.63
2023-01-25T12:27:45.016Z,62.19
2023-01-25T12:30:21.469Z,63.95
2023-01-25T12:33:14.204Z,65.76
2023-01-25T12:35:57.099Z,61.31
2023-01-25T12:38:42.362Z,57.46
2023-01-25T12:41:36.442Z,56.21
2023-01-25T12:44:29.051Z,57.61
2023-01-25T12:47:37.886Z,59.18
2023-01-25T12:50:35.796Z,60.95
2023-01-25T12:53:27.186Z,61.67
2023-01-25T12:55:57.675Z,64.67
2023-01-25T12:58:55.512Z,65.84
2023-01-25T13:01:42.030Z,62.97
2023-01-25T13:04:30.319Z,58.16
2023-01-25T13:07:22.694Z,56.44
2023-01-25T13:10:01.930Z,57.36
2023-01-25T13:12:29.899Z,57.68
2023-01-25T13:14:57.745Z,57.72
2023-01-25T13:17:34.927Z,57.85
2023-01-25T13:20:39.283Z,58.53
2023-01-25T13:23:34.342Z,59.43
2023-01-25T13:26:39.841Z,60.39
2023-01-25T13:29:33.477Z,61.62
2023-01-25T13:32:04.510Z,64.57
2023-01-25T13:34:39.399Z,65.75
2023-01-25T13:37:32.052Z,64.31
2023-01-25T13:40:25.837Z,61.48
2023-01-25T13:43:22.681Z,57.49
2023-01-25T13:45:53.428Z,56.20
2023-01-25T13:48:25.943Z,57.41
2023-01-25T13:51:01.048Z,58.32
2023-01-25T13:53:35.529Z,59.28
2023-01-25T13:56:03.796Z,60.20
2023-01-25T13:58:45.400Z,61.30
2023-01-25T14:01:20.461Z,62.69
2023-01-25T14:03:59.890Z,66.92
2023-01-25T14:06:33.267Z,64.60
2023-01-25T14:09:07.868Z,62.37
2023-01-25T14:11:45.631Z,61.55
2023-01-25T14:14:31.037Z,58.59
2023-01-25T14:17:23.611Z,56.01
2023-01-25T14:19:55.365Z,57.35
2023-01-25T14:22:29.158Z,59.03
2023-01-25T14:25:15.478Z,60.59
2023-01-25T14:27:51.422Z,63.80
2023-01-25T14:30:19.309Z,65.22
2023-01-25T14:32:49.715Z,63.22
2023-01-25T14:35:49.250Z,61.50
2023-01-25T14:38:25.256Z,59.98
2023-01-25T14:41:03.533Z,57.54
2023-01-25T14:43:32.580Z,56.43
2023-01-25T14:46:00.441Z,57.62
2023-01-25T14:48:37.139Z,60.04
2023-01-25T14:51:27.140Z,61.35
2023-01-25T14:54:13.712Z,64.79
2023-01-25T14:56:46.491Z,67.19
2023-01-25T14:59:26.471Z,65.92
2023-01-25T15:02:01.118Z,63.50
2023-01-25T15:04:30.237Z,62.39
2023-01-25T15:07:01.182Z,61.34
2023-01-25T15:09:44.946Z,60.58
2023-01-25T15:12:15.617Z,57.61
2023-01-25T15:14:54.501Z,55.35
2023-01-25T15:17:50.071Z,55.99
2023-01-25T15:20:35.123Z,58.09
2023-01-25T15:23:24.670Z,59.95
2023-01-25T15:25:59.217Z,63.53
2023-01-25T15:28:34.480Z,66.61
2023-01-25T15:31:04.716Z,66.21
2023-01-25T15:33:34.664Z,65.66
2023-01-25T15:36:02.494Z,64.03
2023-01-25T15:38:30.337Z,62.54
2023-01-25T15:41:01.547Z,61.07
2023-01-25T15:43:29.621Z,57.64
2023-01-25T15:46:01.142Z,54.48
2023-01-25T15:48:43.370Z,55.42
2023-01-25T15:51:13.402Z,57.06
2023-01-25T15:53:41.780Z,59.04
2023-01-25T15:56:27.821Z,60.60
2023-01-25T15:58:59.872Z,63.95
2023-01-25T16:01:30.186Z,68.82
2023-01-25T16:04:00.456Z,67.43
2023-01-25T16:06:50.637Z,65.13
2023-01-25T16:09:26.987Z,62.52
2023-01-25T16:11:57.689Z,60.80
2023-01-25T16:14:29.231Z,58.00
2023-01-25T16:17:06.416Z,54.42
2023-01-25T16:19:34.357Z,54.49
2023-01-25T16:22:09.952Z,56.34
2023-01-25T16:24:39.525Z,57.60
2023-01-25T16:27:26.990Z,58.97
2023-01-25T16:29:55.689Z,59.76
2023-01-25T16:32:23.690Z,64.20
2023-01-25T16:34:51.488Z,69.04
2023-01-25T16:37:19.443Z,68.22
2023-01-25T16:39:47.371Z,65.57
2023-01-25T16:42:15.293Z,62.78
2023-01-25T16:44:43.228Z,60.96
2023-01-25T16:47:15.372Z,58.02
2023-01-25T16:49:43.317Z,55.37
2023-01-25T16:52:12.211Z,55.96
2023-01-25T16:54:40.188Z,57.55
2023-01-25T16:57:19.874Z,58.95
2023-01-25T16:59:48.432Z,60.59
2023-01-25T17:02:16.481Z,64.46
2023-01-25T17:04:44.500Z,68.86
2023-01-25T17:07:12.564Z,68.96
2023-01-25T17:09:43.886Z,65.67
2023-01-25T17:12:13.894Z,63.84
2023-01-25T17:14:44.760Z,62.17
2023-01-25T17:17:14.851Z,60.75
2023-01-25T17:19:43.602Z,58.01
2023-01-25T17:22:13.377Z,55.53
2023-01-25T17:24:43.422Z,56.32
2023-01-25T17:27:11.454Z,57.99
2023-01-25T17:29:42.797Z,59.27
2023-01-25T17:32:10.771Z,60.94
2023-01-25T17:34:38.630Z,64.64
2023-01-25T17:37:06.897Z,68.21
2023-01-25T17:39:35.417Z,67.45
2023-01-25T17:42:06.008Z,67.33
2023-01-25T17:44:38.050Z,66.91
2023-01-25T17:47:06.317Z,65.14
2023-01-25T17:49:34.357Z,63.83
2023-01-25T17:52:05.292Z,63.14
2023-01-25T17:54:36.391Z,62.40
2023-01-25T17:57:04.214Z,61.96
2023-01-25T17:59:32.129Z,57.27
2023-01-25T18:02:00.248Z,53.00
2023-01-25T18:04:28.154Z,54.07
2023-01-25T18:06:56.142Z,55.92
2023-01-25T18:09:25.262Z,57.40
2023-01-25T18:11:53.148Z,58.95
2023-01-25T18:14:21.083Z,60.85
2023-01-25T18:16:49.355Z,64.34
2023-01-25T18:19:17.295Z,71.40
2023-01-25T18:21:45.949Z,70.86
2023-01-25T18:24:37.266Z,66.96
2023-01-25T18:27:24.184Z,63.95
2023-01-25T18:30:29.362Z,62.29
2023-01-25T18:32:57.255Z,56.15
2023-01-25T18:35:29.652Z,53.88
2023-01-25T18:37:58.182Z,54.96
2023-01-25T18:40:26.146Z,56.31
2023-01-25T18:42:54.043Z,58.65
2023-01-25T18:45:22.653Z,61.30
2023-01-25T18:47:53.374Z,64.68
2023-01-25T18:50:21.216Z,68.20
2023-01-25T18:52:49.384Z,65.81
2023-01-25T18:55:20.795Z,64.90
2023-01-25T18:57:49.463Z,63.44
2023-01-25T19:00:17.838Z,61.00
2023-01-25T19:02:46.540Z,60.13
2023-01-25T19:05:19.288Z,59.80
2023-01-25T19:07:47.336Z,57.26
2023-01-25T19:10:15.342Z,55.97
2023-01-25T19:12:45.529Z,57.64
2023-01-25T19:15:13.846Z,59.58
2023-01-25T19:17:42.042Z,63.04
2023-01-25T19:20:11.099Z,66.22
2023-01-25T19:22:40.687Z,64.79
2023-01-25T19:25:09.778Z,63.10
2023-01-25T19:27:40.831Z,62.51
2023-01-25T19:30:11.868Z,62.05
2023-01-25T19:32:40.863Z,60.51
2023-01-25T19:35:09.932Z,58.74
2023-01-25T19:37:38.219Z,57.28
2023-01-25T19:40:06.993Z,59.58
2023-01-25T19:42:34.933Z,63.12
2023-01-25T19:45:03.123Z,66.78
2023-01-25T19:47:30.973Z,66.35
2023-01-25T19:50:00.515Z,64.96
2023-01-25T19:52:30.464Z,64.14
2023-01-25T19:55:01.298Z,66.49
2023-01-25T19:57:29.654Z,59.34
2023-01-25T19:59:57.618Z,55.94
2023-01-25T20:02:25.670Z,56.97
2023-01-25T20:04:53.701Z,59.75
2023-01-25T20:07:22.739Z,64.79
2023-01-25T20:09:50.581Z,67.62
2023-01-25T20:12:18.521Z,65.79
2023-01-25T20:14:47.147Z,63.35
2023-01-25T20:17:15.059Z,62.61
2023-01-25T20:19:44.644Z,61.56
2023-01-25T20:22:12.706Z,61.09
2023-01-25T20:24:40.516Z,60.80
2023-01-25T20:27:08.796Z,60.72
2023-01-25T20:29:36.912Z,60.44
2023-01-25T20:32:05.950Z,59.87
2023-01-25T20:34:34.079Z,58.63
2023-01-25T20:37:02.036Z,57.43
2023-01-25T20:39:29.891Z,59.16
2023-01-25T20:41:58.583Z,61.51
2023-01-25T20:44:28.099Z,65.19
2023-01-25T20:46:57.335Z,68.03
2023-01-25T20:49:25.194Z,66.57
2023-01-25T20:51:53.201Z,65.13
2023-01-25T20:54:21.982Z,64.19
2023-01-25T20:56:50.574Z,63.40
2023-01-25T20:59:19.387Z,62.58
2023-01-25T21:01:47.733Z,62.01
2023-01-25T21:04:16.188Z,61.53
2023-01-25T21:06:46.330Z,60.99
2023-01-25T21:09:14.295Z,60.62
2023-01-25T21:11:42.314Z,60.14
2023-01-25T21:14:10.281Z,58.02
2023-01-25T21:16:38.207Z,56.94
2023-01-25T21:19:07.314Z,59.22
2023-01-25T21:21:35.979Z,61.29
2023-01-25T21:24:05.993Z,64.55
2023-01-25T21:26:37.227Z,67.24
2023-01-25T21:29:07.516Z,66.54
2023-01-25T21:31:43.000Z,64.97
2023-01-25T21:34:11.332Z,64.12
2023-01-25T21:36:39.337Z,63.67
2023-01-25T21:39:07.371Z,63.04
2023-01-25T21:41:35.592Z,62.49
2023-01-25T21:44:22.682Z,61.79
2023-01-25T21:47:19.635Z,61.57
2023-01-25T21:49:58.331Z,61.28
2023-01-25T21:52:28.674Z,61.14
2023-01-25T21:54:56.591Z,60.57
2023-01-25T21:57:27.080Z,61.02
2023-01-25T21:59:55.072Z,60.79
2023-01-25T22:02:23.220Z,61.01
2023-01-25T22:04:51.136Z,60.58
2023-01-25T22:07:19.410Z,59.95
2023-01-25T22:09:52.471Z,60.60
2023-01-25T22:12:20.331Z,60.40
2023-01-25T22:14:48.291Z,60.43
2023-01-25T22:17:16.189Z,59.88
2023-01-25T22:19:44.105Z,57.76
2023-01-25T22:22:13.355Z,58.08
2023-01-25T22:24:41.254Z,59.95
2023-01-25T22:27:30.838Z,62.90
2023-01-25T22:29:58.891Z,65.75
2023-01-25T22:32:26.749Z,65.67
2023-01-25T22:34:55.308Z,65.58
2023-01-25T22:37:23.767Z,64.62
2023-01-25T22:39:54.413Z,63.21
2023-01-25T22:42:22.317Z,62.80
2023-01-25T22:44:50.204Z,62.60
2023-01-25T22:47:18.139Z,62.62
2023-01-25T22:49:46.067Z,62.45
2023-01-25T22:52:13.931Z,62.43
2023-01-25T22:54:41.798Z,61.58
2023-01-25T22:57:09.646Z,61.20
2023-01-25T22:59:37.488Z,60.99
2023-01-25T23:02:05.355Z,61.56
2023-01-25T23:04:33.230Z,61.58
2023-01-25T23:07:12.908Z,61.26
2023-01-25T23:09:40.913Z,60.73
2023-01-25T23:12:08.956Z,60.13
2023-01-25T23:14:52.082Z,59.71
2023-01-25T23:17:42.806Z,57.24
2023-01-25T23:20:13.069Z,56.04
2023-01-25T23:22:41.719Z,58.77
2023-01-25T23:25:11.987Z,60.78
2023-01-25T23:27:40.200Z,64.31
2023-01-25T23:30:09.876Z,67.76
2023-01-25T23:32:38.140Z,67.71
2023-01-25T23:35:07.156Z,66.53
2023-01-25T23:37:34.989Z,65.68
2023-01-25T23:40:02.924Z,64.50
2023-01-25T23:42:30.837Z,63.20
2023-01-25T23:44:58.672Z,62.14
2023-01-25T23:47:26.587Z,61.58
2023-01-25T23:49:54.427Z,61.08
2023-01-25T23:52:22.293Z,60.27
2023-01-25T23:54:50.167Z,58.17
2023-01-25T23:57:18.154Z,55.99
2023-01-25T23:59:45.990Z,57.35
